• Join FlightAware (Why Join?)
  • Login
  • US Flag 
03:14AM EDT


 

Airport Tracker/Info


-or-


 

Live Flight TrackerFlight Track Log ✈ CSN3364 ✈ 15-Nov-2013 ✈ ZHLY / LYA - ZGGG / CAN

Flight Track Log - Related Links

Times and Time Zones

All times are in EST time to prevent confusion due to time zone crossing. See the CSN3364 flight status page for this flight to view local times or setup timezone preferences in your user account.

Time Position Orientation Groundspeed Altitude Reporting Facility
EST Latitude Longitude Course Direction KTS MPH feet Rate Location/Type
11:53PM 34.6191 112.3993 176° South  Level Estimated
11:54PM 34.4971 112.4103 176° South  Level Estimated
11:55PM 34.3751 112.4212 176° South  Level Estimated
11:56PM 34.2531 112.4321 176° South  Level Estimated
11:57PM 34.1311 112.4430 176° South  Level Estimated
11:58PM 34.0090 112.4538 176° South  Level Estimated
11:59PM 33.8870 112.4646 176° South  Level Estimated
12:00AM 33.7650 112.4754 176° South  Level Estimated
12:01AM 33.6430 112.4861 176° South  Level Estimated
12:02AM 33.5210 112.4968 176° South  Level Estimated
12:03AM 33.3989 112.5075 176° South  Level Estimated
12:04AM 33.2769 112.5182 176° South  Level Estimated
12:05AM 33.1549 112.5288 176° South  Level Estimated
12:06AM 33.0329 112.5394 176° South  Level Estimated
12:07AM 32.9109 112.5499 176° South  Level Estimated
12:08AM 32.7888 112.5604 176° South  Level Estimated
12:09AM 32.6668 112.5710 176° South  Level Estimated
12:10AM 32.5448 112.5814 176° South  Level Estimated
12:11AM 32.4227 112.5919 176° South  Level Estimated
12:12AM 32.3007 112.6023 176° South  Level Estimated
12:13AM 32.1787 112.6127 176° South  Level Estimated
12:14AM 32.0566 112.6230 176° South  Level Estimated
12:15AM 31.9346 112.6334 176° South  Level Estimated
12:16AM 31.8126 112.6437 176° South  Level Estimated
12:17AM 31.6905 112.6540 176° South  Level Estimated
12:18AM 31.5685 112.6642 176° South  Level Estimated
12:19AM 31.4465 112.6744 176° South  Level Estimated
12:20AM 31.3244 112.6846 176° South  Level Estimated
12:21AM 31.2024 112.6948 176° South  Level Estimated
12:22AM 31.0804 112.7050 176° South  Level Estimated
12:23AM 30.9583 112.7151 176° South  Level Estimated
12:24AM 30.8363 112.7252 176° South  Level Estimated
12:25AM 30.7142 112.7353 176° South  Level Estimated
12:26AM 30.5922 112.7453 176° South  Level Estimated
12:27AM 30.4702 112.7553 176° South  Level Estimated
12:28AM 30.3481 112.7653 176° South  Level Estimated
12:29AM 30.2261 112.7753 176° South  Level Estimated
12:30AM 30.1040 112.7852 176° South  Level Estimated
12:31AM 29.9820 112.7951 176° South  Level Estimated
12:32AM 29.8599 112.8050 176° South  Level Estimated
12:33AM 29.7379 112.8149 176° South  Level Estimated
12:34AM 29.6159 112.8248 176° South  Level Estimated
12:35AM 29.4938 112.8346 176° South  Level Estimated
12:36AM 29.3717 112.8444 176° South  Level Estimated
12:37AM 29.2497 112.8541 176° South  Level Estimated
12:38AM 29.1276 112.8639 176° South  Level Estimated
12:39AM 29.0056 112.8736 176° South  Level Estimated
12:40AM 28.8836 112.8833 176° South  Level Estimated
12:41AM 28.7615 112.8930 176° South  Level Estimated
12:42AM 28.6395 112.9027 176° South  Level Estimated
12:43AM 28.5174 112.9123 176° South  Level Estimated
12:44AM 28.3953 112.9219 176° South  Level Estimated
12:45AM 28.2733 112.9315 176° South  Level Estimated
12:46AM 28.1512 112.9411 176° South  Level Estimated
12:47AM 28.0292 112.9507 176° South  Level Estimated
12:48AM 27.9071 112.9602 176° South  Level Estimated
12:49AM 27.7851 112.9697 176° South  Level Estimated
12:50AM 27.6630 112.9792 176° South  Level Estimated
12:51AM 27.5409 112.9886 176° South  Level Estimated
12:52AM 27.4189 112.9981 176° South  Level Estimated
12:53AM 27.2968 113.0075 176° South  Level Estimated
12:54AM 27.1748 113.0169 176° South  Level Estimated
12:55AM 27.0527 113.0263 176° South  Level Estimated
12:56AM 26.9306 113.0356 176° South  Level Estimated
12:57AM 26.8086 113.0450 176° South  Level Estimated
12:58AM 26.6865 113.0543 176° South  Level Estimated
12:59AM 26.5645 113.0636 176° South  Level Estimated
01:00AM 26.4424 113.0729 176° South  Level Estimated
01:01AM 26.3203 113.0821 176° South  Level Estimated
01:02AM 26.1983 113.0914 176° South  Level Estimated
01:03AM 26.0762 113.1006 176° South  Level Estimated
01:04AM 25.9541 113.1098 176° South  Level Estimated
01:05AM 25.8321 113.1190 176° South  Level Estimated
01:06AM 25.7100 113.1282 176° South  Level Estimated
01:07AM 25.5879 113.1373 176° South  Level Estimated
01:08AM 25.4659 113.1464 176° South  Level Estimated
01:09AM 25.3438 113.1556 176° South  Level Estimated
01:10AM 25.2217 113.1646 176° South  Level Estimated
01:11AM 25.0996 113.1737 176° South  Level Estimated
01:12AM 24.9776 113.1828 176° South  Level Estimated
01:13AM 24.8555 113.1918 176° South  Level Estimated
01:14AM 24.7334 113.2008 176° South  Level Estimated
01:15AM 24.6114 113.2098 176° South  Level Estimated
01:16AM 24.4893 113.2188 176° South  Level Estimated
01:16AM 23.9140 113.5900 176° South 337 388 11,800  Level FlightAware
01:17AM 24.3672 113.2278 176° South  Level Estimated
01:17AM 23.8610 113.5700 199° South 337 388 11,800  Level FlightAware
01:18AM 23.7790 113.5390 199° South 338 389 11,800  Level FlightAware
01:18AM 23.7420 113.5200 205° Southwest 313 360 11,800  Level FlightAware
01:19AM 23.7070 113.4810 226° Southwest 277 319 11,800  Level FlightAware
01:19AM 23.6830 113.4510 229° Southwest 277 319 11,800  Level FlightAware
01:20AM 23.6320 113.3860 229° Southwest 277 319 11,800  Level FlightAware
01:21AM 23.6060 113.3530 229° Southwest 277 319 11,800 -660 Level FlightAware
01:21AM 23.5780 113.3180 229° Southwest 276 318 11,100 -1,440 Descending FlightAware
01:22AM 23.5510 113.2840 229° Southwest 287 330 10,300 -1,500 Descending FlightAware
01:23AM 23.5200 113.2450 229° Southwest 289 333 9,400 -1,500 Descending FlightAware
01:23AM 23.4940 113.2130 228° Southwest 287 330 8,700 -900 Descending FlightAware
01:24AM 23.4560 113.1970 201° Southwest 267 307 8,500 -600 Descending FlightAware
01:24AM 23.4190 113.1890 191° South 252 290 8,100 -840 Descending FlightAware
01:25AM 23.3870 113.1820 191° South 246 283 7,700 -660 Descending FlightAware
01:25AM 23.3570 113.1760 190° South 222 255 7,500 -660 Descending FlightAware
01:25AM 23.3380 113.1720 191° South 215 247 7,200 -1,260 Descending FlightAware
01:26AM 23.3150 113.1670 191° South 213 245 6,600 -1,380 Descending FlightAware
01:26AM 23.2850 113.1610 190° South 210 242 6,000 -1,200 Descending FlightAware
01:27AM 23.2540 113.1550 190° South 203 234 5,400 -1,260 Descending FlightAware
01:28AM 23.2170 113.1470 191° South 203 234 4,500 -1,380 Descending FlightAware
01:28AM 23.1890 113.1410 191° South 201 231 3,800 -1,080 Descending FlightAware
01:28AM 23.1770 113.1390 189° South 196 226 3,700 -1,020 Descending FlightAware
01:29AM 23.1520 113.1650 136° Southeast 176 203 2,900 -660 Descending FlightAware
01:30AM 23.1430 113.1940 109° East 167 192 2,900  Level FlightAware
01:30AM 23.1610 113.2180 51° Northeast 161 185 2,900  Level FlightAware
01:31AM 23.1800 113.2310 32° Northeast 172 198 2,900  Level FlightAware
01:31AM 23.2130 113.2390 13° North 170 196 2,900 -300 Level FlightAware
01:32AM 23.2370 113.2460 15° North 168 193 2,600 -720 Descending FlightAware
01:33AM 23.2670 113.2540 14° North 153 176 2,100 -780 Descending FlightAware
01:33AM 23.2870 113.2590 13° North 132 152 1,700 -780 Descending FlightAware
01:34AM 23.3060 113.2640 14° North 132 152 1,300 -780 Descending FlightAware
01:34AM 23.3150 113.2670 17° North 128 147 1,100 -300 Descending FlightAware
01:34AM 23.3280 113.2700 12° North 128 147 1,100  Level FlightAware
01:38AM 23.3924 113.2988 22° Northeast  Level Estimated
01:39AM 23.3924 113.2988 223° Southwest  Level Estimated
01:40AM 23.3924 113.2988 223° Southwest  Level Estimated
01:41AM 23.3924 113.2988 223° Southwest  Level Estimated
01:42AM 23.3924 113.2988 223° Southwest  Level Estimated
01:43AM 23.3924 113.2988 223° Southwest  Level Estimated
01:44AM 23.3924 113.2988 223° Southwest  Level Estimated
01:45AM 23.3924 113.2988 223° Southwest  Level Estimated
01:46AM 23.3924 113.2988 223° Southwest  Level Estimated
01:47AM 23.3924 113.2988 223° Southwest  Level Estimated
01:48AM 23.3924 113.2988 223° Southwest  Level Estimated
01:49AM 23.3924 113.2988 223° Southwest  Level Estimated
01:50AM 23.3924 113.2988 223° Southwest  Level Estimated
01:51AM 23.3924 113.2988 223° Southwest  Level Estimated